createdAt,value
2022-08-22T00:00:51.247Z,2.10
2022-08-22T00:01:59.382Z,2.70
2022-08-22T00:02:47.028Z,2.40
2022-08-22T00:02:55.327Z,2.40
2022-08-22T00:02:57.678Z,2.50
2022-08-22T00:03:09.504Z,2.90
2022-08-22T00:03:31.738Z,2.60
2022-08-22T00:05:00.202Z,3.10
2022-08-22T00:06:49.917Z,2.30
2022-08-22T00:09:58.370Z,2.60
2022-08-22T00:13:07.600Z,2.90
2022-08-22T00:15:08.078Z,2.50
2022-08-22T00:20:15.426Z,2.40
2022-08-22T00:21:45.293Z,2.40
2022-08-22T00:23:20.407Z,2.40
2022-08-22T00:25:41.878Z,3.10
2022-08-22T00:27:12.715Z,3.10
2022-08-22T00:28:42.640Z,2.90
2022-08-22T00:31:01.242Z,3.20
2022-08-22T00:33:07.898Z,2.40
2022-08-22T00:34:36.653Z,2.80
2022-08-22T00:36:04.327Z,2.90
2022-08-22T00:38:46.077Z,3.40
2022-08-22T00:40:17.494Z,2.80
2022-08-22T00:42:37.717Z,2.40
2022-08-22T00:45:26.355Z,3.00
2022-08-22T00:49:42.697Z,2.80
2022-08-22T00:53:02.856Z,2.90
2022-08-22T00:54:31.427Z,2.90
2022-08-22T01:00:48.089Z,2.90
2022-08-22T01:02:52.526Z,3.10
2022-08-22T01:05:09.272Z,2.70
2022-08-22T01:08:08.238Z,2.90
2022-08-22T01:10:09.748Z,2.90
2022-08-22T01:12:08.802Z,3.20
2022-08-22T01:17:06.388Z,3.50
2022-08-22T01:22:35.602Z,3.10
2022-08-22T01:24:06.121Z,3.00
2022-08-22T01:26:04.138Z,4.70
2022-08-22T01:28:03.508Z,3.00
2022-08-22T01:34:16.452Z,3.10
2022-08-22T01:40:56.626Z,2.60
2022-08-22T01:45:32.756Z,3.70
2022-08-22T01:47:37.538Z,3.20
2022-08-22T01:50:20.601Z,3.40
2022-08-22T01:52:50.420Z,3.30
2022-08-22T01:54:21.508Z,3.40
2022-08-22T01:55:51.783Z,2.90
2022-08-22T01:57:38.237Z,3.20
2022-08-22T02:00:46.221Z,3.30
2022-08-22T02:02:15.187Z,3.70
2022-08-22T02:04:17.330Z,3.20
2022-08-22T02:05:46.987Z,3.00
2022-08-22T02:08:47.056Z,3.50
2022-08-22T02:11:04.991Z,3.10
2022-08-22T02:13:24.216Z,3.20
2022-08-22T02:17:14.297Z,3.50
2022-08-22T02:25:08.844Z,3.40
2022-08-22T02:29:57.766Z,3.10
2022-08-22T02:33:21.745Z,3.30
2022-08-22T02:35:47.630Z,4.50
2022-08-22T02:41:28.707Z,3.60
2022-08-22T02:44:29.019Z,3.30
2022-08-22T02:49:01.420Z,3.60
2022-08-22T02:51:41.111Z,3.80
2022-08-22T02:55:49.975Z,3.70
2022-08-22T02:57:19.928Z,4.00
2022-08-22T02:58:49.874Z,3.50
2022-08-22T03:00:41.601Z,3.80
2022-08-22T03:07:44.254Z,3.50
2022-08-22T03:10:23.754Z,3.50
2022-08-22T03:11:53.805Z,3.80
2022-08-22T03:13:23.512Z,4.40
2022-08-22T03:20:01.398Z,3.90
2022-08-22T03:21:30.213Z,3.50
2022-08-22T03:24:48.518Z,4.00
2022-08-22T03:26:18.699Z,4.10
2022-08-22T03:28:18.478Z,3.30
2022-08-22T03:35:05.756Z,3.80
2022-08-22T03:37:51.868Z,3.70
2022-08-22T03:41:00.632Z,3.50
2022-08-22T03:42:29.692Z,4.50
2022-08-22T03:49:05.765Z,3.30
2022-08-22T03:52:05.616Z,3.80
2022-08-22T03:53:35.618Z,3.70
2022-08-22T03:55:04.515Z,4.00
2022-08-22T03:56:58.930Z,4.80
2022-08-22T03:58:44.996Z,4.60
2022-08-22T04:00:14.282Z,3.70
2022-08-22T04:04:46.446Z,4.10
2022-08-22T04:08:45.491Z,3.80
2022-08-22T04:10:25.898Z,4.00
2022-08-22T04:12:55.854Z,3.60
2022-08-22T04:14:26.279Z,3.90
2022-08-22T04:16:17.206Z,4.00
2022-08-22T04:20:07.351Z,4.20
2022-08-22T04:24:08.291Z,4.10
2022-08-22T04:28:44.243Z,4.80
2022-08-22T04:30:16.650Z,5.00
2022-08-22T04:38:42.012Z,3.60
2022-08-22T04:40:43.479Z,4.70
2022-08-22T04:53:23.495Z,5.20
2022-08-22T04:55:53.961Z,5.40
2022-08-22T04:57:26.005Z,4.60
2022-08-22T05:01:32.130Z,4.40
2022-08-22T05:03:51.104Z,5.00
2022-08-22T05:05:20.286Z,4.60
2022-08-22T05:11:21.291Z,5.60
2022-08-22T05:12:52.864Z,4.90
2022-08-22T05:14:24.223Z,4.80
2022-08-22T05:18:11.226Z,5.50
2022-08-22T05:21:01.299Z,3.90
2022-08-22T05:23:58.135Z,4.60
2022-08-22T05:29:21.675Z,3.60
2022-08-22T05:32:10.684Z,4.40
2022-08-22T05:34:49.117Z,5.20
2022-08-22T05:37:08.032Z,5.10
2022-08-22T05:43:12.665Z,4.30
2022-08-22T05:45:13.084Z,4.50
2022-08-22T05:47:29.401Z,4.80
2022-08-22T05:50:21.258Z,4.30
2022-08-22T05:52:13.180Z,4.90
2022-08-22T05:54:10.132Z,4.80
2022-08-22T05:58:13.122Z,4.60
2022-08-22T06:00:22.643Z,4.10
2022-08-22T06:04:02.231Z,4.50
2022-08-22T06:08:03.820Z,4.60
2022-08-22T06:16:56.570Z,4.30
2022-08-22T06:20:52.981Z,4.50
2022-08-22T06:26:44.491Z,4.30
2022-08-22T06:32:59.435Z,4.50
2022-08-22T06:34:09.972Z,4.30
2022-08-22T06:35:59.215Z,4.40
2022-08-22T06:45:55.205Z,4.40
2022-08-22T06:48:00.542Z,4.00
2022-08-22T06:49:56.333Z,4.60
2022-08-22T06:51:55.938Z,4.40
2022-08-22T06:53:26.178Z,4.70
2022-08-22T06:57:35.395Z,5.30
2022-08-22T06:59:08.997Z,4.10
2022-08-22T07:01:27.954Z,4.30
2022-08-22T07:02:57.699Z,5.30
2022-08-22T07:04:25.997Z,4.70
2022-08-22T07:06:55.138Z,5.00
2022-08-22T07:08:51.008Z,4.50
2022-08-22T07:10:50.840Z,4.90
2022-08-22T07:17:09.943Z,4.50
2022-08-22T07:18:59.751Z,4.40
2022-08-22T07:24:44.919Z,4.50
2022-08-22T07:28:51.650Z,4.80
2022-08-22T07:31:37.289Z,4.70
2022-08-22T07:36:52.590Z,4.60
2022-08-22T07:38:26.410Z,4.50
2022-08-22T07:40:28.585Z,4.20
2022-08-22T07:42:28.537Z,4.80
2022-08-22T07:51:54.096Z,5.00
2022-08-22T07:55:53.069Z,5.60
2022-08-22T07:59:14.538Z,5.10
2022-08-22T08:02:13.580Z,5.10
2022-08-22T08:05:31.112Z,5.90
2022-08-22T08:08:55.395Z,4.90
2022-08-22T08:11:51.392Z,6.00
2022-08-22T08:15:05.190Z,5.10
2022-08-22T08:17:04.008Z,5.20
2022-08-22T08:22:28.587Z,5.70
2022-08-22T08:24:26.980Z,5.00
2022-08-22T08:25:56.830Z,4.70
2022-08-22T08:29:41.827Z,5.90
2022-08-22T08:32:00.878Z,5.00
2022-08-22T08:34:50.422Z,4.90
2022-08-22T08:36:47.657Z,5.40
2022-08-22T08:38:19.572Z,5.30
2022-08-22T08:39:45.727Z,5.90
2022-08-22T08:41:47.504Z,5.00
2022-08-22T08:44:19.638Z,4.60
2022-08-22T08:46:19.922Z,4.90
2022-08-22T08:48:24.383Z,5.70
2022-08-22T08:50:24.091Z,5.20
2022-08-22T08:56:26.438Z,5.20
2022-08-22T09:00:16.227Z,4.80
2022-08-22T09:06:28.346Z,4.80
2022-08-22T09:11:37.803Z,5.40
2022-08-22T09:13:27.909Z,5.30
2022-08-22T09:16:19.398Z,5.40
2022-08-22T09:18:40.188Z,5.20
2022-08-22T09:20:31.656Z,5.90
2022-08-22T09:23:03.921Z,4.70
2022-08-22T09:25:08.193Z,5.70
2022-08-22T09:27:08.500Z,5.40
2022-08-22T09:28:58.382Z,5.00
2022-08-22T09:33:31.973Z,5.90
2022-08-22T09:35:29.976Z,4.90
2022-08-22T09:40:06.110Z,5.30
2022-08-22T09:43:48.759Z,5.30
2022-08-22T09:45:19.462Z,5.10
2022-08-22T09:50:29.413Z,5.60
2022-08-22T09:54:31.238Z,6.90
2022-08-22T09:56:00.193Z,6.30
2022-08-22T09:57:30.740Z,5.00
2022-08-22T10:01:40.325Z,4.60
2022-08-22T10:04:42.131Z,4.40
2022-08-22T10:08:26.182Z,6.10
2022-08-22T10:09:53.650Z,4.80
2022-08-22T10:12:12.435Z,4.60
2022-08-22T10:14:01.898Z,5.30
2022-08-22T10:16:26.309Z,4.90
2022-08-22T10:18:31.152Z,5.00
2022-08-22T10:23:09.891Z,4.70
2022-08-22T10:27:19.340Z,6.10
2022-08-22T10:31:59.249Z,5.50
2022-08-22T10:33:25.194Z,4.20
2022-08-22T10:37:11.701Z,4.20
2022-08-22T10:43:28.723Z,4.60
2022-08-22T10:45:43.317Z,6.10
2022-08-22T10:47:14.452Z,5.30
2022-08-22T10:50:49.965Z,4.60
2022-08-22T10:52:19.795Z,4.50
2022-08-22T10:58:25.152Z,3.60
2022-08-22T11:06:07.992Z,4.00
2022-08-22T11:07:36.874Z,3.60
2022-08-22T11:10:34.956Z,4.80
2022-08-22T11:12:23.770Z,4.40
2022-08-22T11:13:53.970Z,4.30
2022-08-22T11:15:52.325Z,3.90
2022-08-22T11:19:15.122Z,3.30
2022-08-22T11:21:25.956Z,3.80
2022-08-22T11:22:55.992Z,4.40
2022-08-22T11:24:56.695Z,4.40
2022-08-22T11:26:33.618Z,3.80
2022-08-22T11:32:05.614Z,3.80
2022-08-22T11:34:51.137Z,4.10
2022-08-22T11:36:19.141Z,3.50
2022-08-22T11:39:51.780Z,3.50
2022-08-22T11:45:05.464Z,3.40
2022-08-22T11:48:50.132Z,3.30
2022-08-22T11:51:47.269Z,3.90
2022-08-22T11:54:00.344Z,3.00
2022-08-22T11:55:07.155Z,3.60
2022-08-22T11:57:44.464Z,3.00
2022-08-22T12:00:02.237Z,3.20
2022-08-22T12:02:53.264Z,3.20
2022-08-22T12:06:22.984Z,3.20
2022-08-22T12:09:44.221Z,3.20
2022-08-22T12:11:48.508Z,3.00
2022-08-22T12:15:57.268Z,3.00
2022-08-22T12:18:01.985Z,2.90
2022-08-22T12:19:32.699Z,4.00
2022-08-22T12:22:01.993Z,3.10
2022-08-22T12:28:12.955Z,3.70
2022-08-22T12:29:51.644Z,3.60
2022-08-22T12:37:23.056Z,2.80
2022-08-22T12:39:40.857Z,3.50
2022-08-22T12:41:46.554Z,3.10
2022-08-22T12:47:18.990Z,3.50
2022-08-22T12:51:03.748Z,3.10
2022-08-22T12:55:28.337Z,2.80
2022-08-22T12:58:08.058Z,3.00
2022-08-22T13:00:26.739Z,3.20
2022-08-22T13:03:20.981Z,2.60
2022-08-22T13:04:50.106Z,2.80
2022-08-22T13:06:57.455Z,3.10
2022-08-22T13:10:10.905Z,2.60
2022-08-22T13:11:39.728Z,3.00
2022-08-22T13:13:56.145Z,2.30
2022-08-22T13:15:53.505Z,2.80
2022-08-22T13:18:44.605Z,3.20
2022-08-22T13:21:14.016Z,2.30
2022-08-22T13:23:52.920Z,2.10
2022-08-22T13:26:43.914Z,2.00
2022-08-22T13:34:17.392Z,2.30
2022-08-22T13:36:20.114Z,2.30
2022-08-22T13:40:56.384Z,2.10
2022-08-22T13:44:32.109Z,1.90
2022-08-22T13:46:01.909Z,2.30
2022-08-22T13:49:08.578Z,2.40
2022-08-22T13:51:33.163Z,2.30
2022-08-22T13:53:02.353Z,2.30
2022-08-22T13:56:50.552Z,2.30
2022-08-22T14:00:29.129Z,2.10
2022-08-22T14:02:48.824Z,2.30
2022-08-22T14:04:26.656Z,2.00
2022-08-22T14:05:46.778Z,2.20
2022-08-22T14:09:15.144Z,2.00
2022-08-22T14:10:45.935Z,2.40
2022-08-22T14:12:14.952Z,2.50
2022-08-22T14:13:45.877Z,2.60
2022-08-22T14:21:16.551Z,2.30
2022-08-22T14:22:46.178Z,2.10
2022-08-22T14:25:52.613Z,2.30
2022-08-22T14:28:12.339Z,2.20
2022-08-22T14:29:41.214Z,2.30
2022-08-22T14:35:05.735Z,2.00
2022-08-22T14:36:36.629Z,2.70
2022-08-22T14:38:05.493Z,2.50
2022-08-22T14:40:40.050Z,2.50
2022-08-22T14:42:10.036Z,2.40
2022-08-22T14:45:56.093Z,2.70
2022-08-22T14:52:54.315Z,3.10
2022-08-22T14:54:22.077Z,1.80
2022-08-22T14:57:58.150Z,2.50
2022-08-22T14:59:27.035Z,2.00
2022-08-22T15:00:57.227Z,2.20
2022-08-22T15:03:03.507Z,2.30
2022-08-22T15:04:32.356Z,2.50
2022-08-22T15:06:23.097Z,2.30
2022-08-22T15:11:49.353Z,2.20
2022-08-22T15:16:09.462Z,2.00
2022-08-22T15:18:05.951Z,2.10
2022-08-22T15:24:28.784Z,1.80
2022-08-22T15:26:55.316Z,1.90
2022-08-22T15:29:40.523Z,2.50
2022-08-22T15:33:06.035Z,2.20
2022-08-22T15:34:35.919Z,2.30
2022-08-22T15:36:04.828Z,2.40
2022-08-22T15:37:34.224Z,2.30
2022-08-22T15:41:42.276Z,2.00
2022-08-22T15:44:09.280Z,2.10
2022-08-22T15:47:41.952Z,2.00
2022-08-22T15:50:28.522Z,2.50
2022-08-22T15:52:47.280Z,1.90
2022-08-22T15:56:32.710Z,2.00
2022-08-22T16:00:27.864Z,2.10
2022-08-22T16:01:56.934Z,2.10
2022-08-22T16:11:10.683Z,2.20
2022-08-22T16:14:18.106Z,2.10
2022-08-22T16:19:27.463Z,1.90
2022-08-22T16:21:17.516Z,2.60
2022-08-22T16:24:38.427Z,2.20
2022-08-22T16:26:57.138Z,2.20
2022-08-22T16:29:06.793Z,2.20
2022-08-22T16:31:53.755Z,1.90
2022-08-22T16:34:05.111Z,2.20
2022-08-22T16:36:22.138Z,2.20
2022-08-22T16:39:03.084Z,2.10
2022-08-22T16:41:45.178Z,2.20
2022-08-22T16:42:52.350Z,2.50
2022-08-22T16:46:26.013Z,2.20
2022-08-22T16:49:15.320Z,2.00
2022-08-22T16:50:48.511Z,2.00
2022-08-22T16:52:36.587Z,1.60
2022-08-22T16:54:18.422Z,2.00
2022-08-22T16:55:39.346Z,2.00
2022-08-22T16:58:56.934Z,2.10
2022-08-22T17:00:13.241Z,2.30
2022-08-22T17:03:07.405Z,2.60
2022-08-22T17:04:37.033Z,2.40
2022-08-22T17:07:39.778Z,2.40
2022-08-22T17:10:17.077Z,1.90
2022-08-22T17:12:55.218Z,2.40
2022-08-22T17:14:23.336Z,1.90
2022-08-22T17:19:48.453Z,2.10
2022-08-22T17:21:25.914Z,2.50
2022-08-22T17:26:24.790Z,2.30
2022-08-22T17:31:59.543Z,2.50
2022-08-22T17:35:49.984Z,2.20
2022-08-22T17:37:44.707Z,2.30
2022-08-22T17:39:12.596Z,2.40
2022-08-22T17:42:05.468Z,2.40
2022-08-22T17:44:56.215Z,2.50
2022-08-22T17:47:47.785Z,2.80
2022-08-22T17:50:22.752Z,2.70
2022-08-22T17:53:49.435Z,2.30
2022-08-22T17:57:06.007Z,2.70
2022-08-22T18:00:03.907Z,2.40
2022-08-22T18:01:51.809Z,3.00
2022-08-22T18:03:53.678Z,2.10
2022-08-22T18:06:10.812Z,2.80
2022-08-22T18:10:06.707Z,2.60
2022-08-22T18:12:22.994Z,2.00
2022-08-22T18:13:54.056Z,2.20
2022-08-22T18:15:55.025Z,2.10
2022-08-22T18:17:21.499Z,2.90
2022-08-22T18:19:41.325Z,2.20
2022-08-22T18:21:13.224Z,2.20
2022-08-22T18:30:37.557Z,2.30
2022-08-22T18:33:53.381Z,2.70
2022-08-22T18:35:43.798Z,2.40
2022-08-22T18:37:12.862Z,2.70
2022-08-22T18:38:42.751Z,2.30
2022-08-22T18:41:42.371Z,2.40
2022-08-22T18:44:50.166Z,2.50
2022-08-22T18:46:33.120Z,3.90
2022-08-22T18:49:25.207Z,3.80
2022-08-22T18:50:55.163Z,3.20
2022-08-22T18:52:24.090Z,3.00
2022-08-22T19:03:23.129Z,6.50
2022-08-22T19:05:33.917Z,5.70
2022-08-22T19:09:13.328Z,3.00
2022-08-22T19:10:42.846Z,2.80
2022-08-22T19:15:48.701Z,2.70
2022-08-22T19:17:21.446Z,3.10
2022-08-22T19:20:11.291Z,2.70
2022-08-22T19:22:17.889Z,2.50
2022-08-22T19:25:08.944Z,2.90
2022-08-22T19:26:39.019Z,2.80
2022-08-22T19:28:10.138Z,2.60
2022-08-22T19:29:46.348Z,1.80
2022-08-22T19:31:16.654Z,2.90
2022-08-22T19:38:11.023Z,3.00
2022-08-22T19:43:03.066Z,3.00
2022-08-22T19:44:28.173Z,2.30
2022-08-22T19:46:37.893Z,2.80
2022-08-22T19:48:16.472Z,4.10
2022-08-22T19:51:09.700Z,4.10
2022-08-22T19:59:37.871Z,2.40
2022-08-22T20:06:46.000Z,2.70
2022-08-22T20:08:09.404Z,2.40
2022-08-22T20:09:38.763Z,3.10
2022-08-22T20:11:11.229Z,2.20
2022-08-22T20:15:14.089Z,2.20
2022-08-22T20:19:39.869Z,2.90
2022-08-22T20:25:16.973Z,4.30
2022-08-22T20:28:11.263Z,2.80
2022-08-22T20:32:34.457Z,2.50
2022-08-22T20:37:35.871Z,2.10
2022-08-22T20:40:54.696Z,2.40
2022-08-22T20:41:44.125Z,2.30
2022-08-22T20:44:28.571Z,2.30
2022-08-22T20:49:41.578Z,2.10
2022-08-22T20:51:11.693Z,2.40
2022-08-22T20:52:43.314Z,2.30
2022-08-22T20:54:15.385Z,2.60
2022-08-22T20:56:11.184Z,2.20
2022-08-22T20:59:01.276Z,3.20
2022-08-22T21:03:38.307Z,3.50
2022-08-22T21:05:08.483Z,2.90
2022-08-22T21:06:42.294Z,3.10
2022-08-22T21:09:12.129Z,2.40
2022-08-22T21:16:37.966Z,2.30
2022-08-22T21:19:52.880Z,2.30
2022-08-22T21:23:40.875Z,2.30
2022-08-22T21:25:39.708Z,2.40
2022-08-22T21:28:09.673Z,2.60
2022-08-22T21:29:38.551Z,2.40
2022-08-22T21:41:32.900Z,2.60
2022-08-22T21:47:32.583Z,2.60
2022-08-22T21:49:01.460Z,2.60
2022-08-22T21:51:02.545Z,2.40
2022-08-22T21:55:27.949Z,2.50
2022-08-22T21:56:57.861Z,2.60
2022-08-22T21:59:59.785Z,2.80
2022-08-22T22:03:34.891Z,2.50
2022-08-22T22:11:08.624Z,2.30
2022-08-22T22:14:09.513Z,2.50
2022-08-22T22:15:41.380Z,2.60
2022-08-22T22:23:27.298Z,2.60
2022-08-22T22:26:14.302Z,2.80
2022-08-22T22:28:10.745Z,2.50
2022-08-22T22:29:41.604Z,2.60
2022-08-22T22:32:10.129Z,3.00
2022-08-22T22:33:37.568Z,2.60
2022-08-22T22:38:24.440Z,3.20
2022-08-22T22:50:50.280Z,3.10
2022-08-22T22:53:19.380Z,2.90
2022-08-22T22:59:50.053Z,2.60
2022-08-22T23:02:42.412Z,2.90
2022-08-22T23:04:12.264Z,2.70
2022-08-22T23:12:28.145Z,2.80
2022-08-22T23:15:05.790Z,2.90
2022-08-22T23:19:51.151Z,3.10
2022-08-22T23:22:59.864Z,2.50
2022-08-22T23:25:02.802Z,2.40
2022-08-22T23:29:52.788Z,2.70
2022-08-22T23:32:09.100Z,3.00
2022-08-22T23:33:39.985Z,3.30
2022-08-22T23:38:54.618Z,3.00
2022-08-22T23:41:24.883Z,3.30
2022-08-22T23:43:22.800Z,3.00
2022-08-22T23:44:54.126Z,2.70
2022-08-22T23:46:50.946Z,2.60
2022-08-22T23:48:52.270Z,2.80
2022-08-22T23:50:22.510Z,3.00
2022-08-22T23:52:22.870Z,2.60
2022-08-22T23:54:40.217Z,3.00
2022-08-22T23:56:10.599Z,3.10
2022-08-22T23:57:40.935Z,2.80
